sensor_id;sensor_type;location;lat;lon;timestamp;P1;durP1;ratioP1;P2;durP2;ratioP2
15848;SDS011;8024;48.708;9.394;2023-05-10T00:02:21;1.40;;;1.27;;
15848;SDS011;8024;48.708;9.394;2023-05-10T00:04:50;1.80;;;1.70;;
15848;SDS011;8024;48.708;9.394;2023-05-10T00:07:18;1.60;;;1.60;;
15848;SDS011;8024;48.708;9.394;2023-05-10T00:09:45;1.07;;;1.07;;
15848;SDS011;8024;48.708;9.394;2023-05-10T00:12:12;1.80;;;1.70;;
15848;SDS011;8024;48.708;9.394;2023-05-10T00:14:39;1.30;;;1.30;;
15848;SDS011;8024;48.708;9.394;2023-05-10T00:17:06;1.60;;;1.50;;
15848;SDS011;8024;48.708;9.394;2023-05-10T00:19:34;2.37;;;2.17;;
15848;SDS011;8024;48.708;9.394;2023-05-10T00:22:02;2.70;;;2.00;;
15848;SDS011;8024;48.708;9.394;2023-05-10T00:24:29;4.80;;;2.00;;
15848;SDS011;8024;48.708;9.394;2023-05-10T00:26:56;2.00;;;1.83;;
15848;SDS011;8024;48.708;9.394;2023-05-10T00:29:23;2.10;;;2.00;;
15848;SDS011;8024;48.708;9.394;2023-05-10T00:31:51;2.33;;;2.00;;
15848;SDS011;8024;48.708;9.394;2023-05-10T00:34:18;2.40;;;2.20;;
15848;SDS011;8024;48.708;9.394;2023-05-10T00:36:46;2.13;;;1.70;;
15848;SDS011;8024;48.708;9.394;2023-05-10T00:39:14;2.80;;;2.30;;
15848;SDS011;8024;48.708;9.394;2023-05-10T00:41:41;1.97;;;1.80;;
15848;SDS011;8024;48.708;9.394;2023-05-10T00:44:09;1.13;;;0.90;;
15848;SDS011;8024;48.708;9.394;2023-05-10T00:46:36;0.60;;;0.60;;
15848;SDS011;8024;48.708;9.394;2023-05-10T00:49:03;0.87;;;0.50;;
15848;SDS011;8024;48.708;9.394;2023-05-10T00:51:30;0.83;;;0.50;;
15848;SDS011;8024;48.708;9.394;2023-05-10T00:53:58;0.70;;;0.70;;
15848;SDS011;8024;48.708;9.394;2023-05-10T00:56:26;1.40;;;0.40;;
15848;SDS011;8024;48.708;9.394;2023-05-10T00:58:54;0.87;;;0.87;;
15848;SDS011;8024;48.708;9.394;2023-05-10T01:01:22;0.27;;;0.27;;
15848;SDS011;8024;48.708;9.394;2023-05-10T01:03:49;0.77;;;0.50;;
15848;SDS011;8024;48.708;9.394;2023-05-10T01:06:17;0.93;;;0.70;;
15848;SDS011;8024;48.708;9.394;2023-05-10T01:08:44;0.67;;;0.50;;
15848;SDS011;8024;48.708;9.394;2023-05-10T01:11:12;2.13;;;0.57;;
15848;SDS011;8024;48.708;9.394;2023-05-10T01:13:42;2.13;;;0.53;;
15848;SDS011;8024;48.708;9.394;2023-05-10T01:16:12;1.27;;;0.30;;
15848;SDS011;8024;48.708;9.394;2023-05-10T01:18:39;1.17;;;0.40;;
15848;SDS011;8024;48.708;9.394;2023-05-10T01:21:14;1.33;;;0.33;;
15848;SDS011;8024;48.708;9.394;2023-05-10T01:26:47;0.30;;;0.30;;
15848;SDS011;8024;48.708;9.394;2023-05-10T01:29:45;0.30;;;0.30;;
15848;SDS011;8024;48.708;9.394;2023-05-10T01:32:30;0.60;;;0.30;;
15848;SDS011;8024;48.708;9.394;2023-05-10T01:35:02;0.20;;;0.20;;
15848;SDS011;8024;48.708;9.394;2023-05-10T01:37:35;1.20;;;0.23;;
15848;SDS011;8024;48.708;9.394;2023-05-10T01:40:08;3.03;;;0.50;;
15848;SDS011;8024;48.708;9.394;2023-05-10T01:42:42;2.33;;;0.30;;
15848;SDS011;8024;48.708;9.394;2023-05-10T01:45:18;0.87;;;0.20;;
15848;SDS011;8024;48.708;9.394;2023-05-10T01:47:55;1.37;;;0.50;;
15848;SDS011;8024;48.708;9.394;2023-05-10T01:50:28;0.83;;;0.33;;
15848;SDS011;8024;48.708;9.394;2023-05-10T01:52:57;0.20;;;0.20;;
15848;SDS011;8024;48.708;9.394;2023-05-10T01:55:27;0.20;;;0.20;;
15848;SDS011;8024;48.708;9.394;2023-05-10T01:57:59;0.73;;;0.20;;
15848;SDS011;8024;48.708;9.394;2023-05-10T02:00:30;0.77;;;0.20;;
15848;SDS011;8024;48.708;9.394;2023-05-10T02:03:01;0.20;;;0.20;;
15848;SDS011;8024;48.708;9.394;2023-05-10T02:05:32;0.17;;;0.17;;
15848;SDS011;8024;48.708;9.394;2023-05-10T02:08:00;1.23;;;0.20;;
15848;SDS011;8024;48.708;9.394;2023-05-10T02:10:29;0.47;;;0.20;;
15848;SDS011;8024;48.708;9.394;2023-05-10T02:12:58;2.17;;;0.30;;
15848;SDS011;8024;48.708;9.394;2023-05-10T02:15:26;1.40;;;0.30;;
15848;SDS011;8024;48.708;9.394;2023-05-10T02:17:55;0.20;;;0.20;;
15848;SDS011;8024;48.708;9.394;2023-05-10T02:20:24;0.20;;;0.20;;
15848;SDS011;8024;48.708;9.394;2023-05-10T02:22:53;0.63;;;0.10;;
15848;SDS011;8024;48.708;9.394;2023-05-10T02:25:22;0.20;;;0.20;;
15848;SDS011;8024;48.708;9.394;2023-05-10T02:27:51;3.10;;;0.20;;
15848;SDS011;8024;48.708;9.394;2023-05-10T02:30:20;1.07;;;0.20;;
15848;SDS011;8024;48.708;9.394;2023-05-10T02:32:48;0.20;;;0.20;;
15848;SDS011;8024;48.708;9.394;2023-05-10T02:35:16;0.47;;;0.20;;
15848;SDS011;8024;48.708;9.394;2023-05-10T02:37:45;0.20;;;0.20;;
15848;SDS011;8024;48.708;9.394;2023-05-10T02:40:13;1.33;;;0.20;;
15848;SDS011;8024;48.708;9.394;2023-05-10T02:42:42;1.93;;;0.20;;
15848;SDS011;8024;48.708;9.394;2023-05-10T02:45:11;0.20;;;0.20;;
15848;SDS011;8024;48.708;9.394;2023-05-10T02:47:40;0.70;;;0.20;;
15848;SDS011;8024;48.708;9.394;2023-05-10T02:50:08;0.30;;;0.20;;
15848;SDS011;8024;48.708;9.394;2023-05-10T02:52:39;0.40;;;0.20;;
15848;SDS011;8024;48.708;9.394;2023-05-10T02:55:11;0.37;;;0.20;;
15848;SDS011;8024;48.708;9.394;2023-05-10T02:57:43;0.30;;;0.30;;
15848;SDS011;8024;48.708;9.394;2023-05-10T03:00:14;1.03;;;0.20;;
15848;SDS011;8024;48.708;9.394;2023-05-10T03:02:42;0.20;;;0.20;;
15848;SDS011;8024;48.708;9.394;2023-05-10T03:05:09;2.40;;;0.87;;
15848;SDS011;8024;48.708;9.394;2023-05-10T03:07:36;0.30;;;0.27;;
15848;SDS011;8024;48.708;9.394;2023-05-10T03:10:03;5.00;;;0.33;;
15848;SDS011;8024;48.708;9.394;2023-05-10T03:12:45;0.50;;;0.23;;
15848;SDS011;8024;48.708;9.394;2023-05-10T03:15:22;0.83;;;0.20;;
15848;SDS011;8024;48.708;9.394;2023-05-10T03:18:00;0.23;;;0.23;;
15848;SDS011;8024;48.708;9.394;2023-05-10T03:20:35;0.30;;;0.30;;
15848;SDS011;8024;48.708;9.394;2023-05-10T03:23:04;0.20;;;0.20;;
15848;SDS011;8024;48.708;9.394;2023-05-10T03:25:38;0.77;;;0.30;;
15848;SDS011;8024;48.708;9.394;2023-05-10T03:28:10;0.20;;;0.20;;
15848;SDS011;8024;48.708;9.394;2023-05-10T03:30:38;0.30;;;0.30;;
15848;SDS011;8024;48.708;9.394;2023-05-10T03:33:06;0.20;;;0.20;;
15848;SDS011;8024;48.708;9.394;2023-05-10T03:35:33;0.40;;;0.20;;
15848;SDS011;8024;48.708;9.394;2023-05-10T03:38:01;1.07;;;0.30;;
15848;SDS011;8024;48.708;9.394;2023-05-10T03:40:28;2.20;;;0.30;;
15848;SDS011;8024;48.708;9.394;2023-05-10T03:42:56;2.40;;;0.30;;
15848;SDS011;8024;48.708;9.394;2023-05-10T03:45:25;0.30;;;0.30;;
15848;SDS011;8024;48.708;9.394;2023-05-10T03:47:53;0.27;;;0.23;;
15848;SDS011;8024;48.708;9.394;2023-05-10T03:50:21;0.73;;;0.40;;
15848;SDS011;8024;48.708;9.394;2023-05-10T03:52:48;0.43;;;0.40;;
15848;SDS011;8024;48.708;9.394;2023-05-10T03:55:15;0.93;;;0.30;;
15848;SDS011;8024;48.708;9.394;2023-05-10T03:57:43;0.93;;;0.20;;
15848;SDS011;8024;48.708;9.394;2023-05-10T04:00:11;0.30;;;0.30;;
15848;SDS011;8024;48.708;9.394;2023-05-10T04:02:40;0.30;;;0.30;;
15848;SDS011;8024;48.708;9.394;2023-05-10T04:05:07;0.30;;;0.30;;
15848;SDS011;8024;48.708;9.394;2023-05-10T04:07:35;0.20;;;0.20;;
15848;SDS011;8024;48.708;9.394;2023-05-10T04:10:02;0.20;;;0.20;;
15848;SDS011;8024;48.708;9.394;2023-05-10T04:12:30;0.53;;;0.30;;
15848;SDS011;8024;48.708;9.394;2023-05-10T04:14:57;0.50;;;0.50;;
15848;SDS011;8024;48.708;9.394;2023-05-10T04:17:24;0.20;;;0.20;;
15848;SDS011;8024;48.708;9.394;2023-05-10T04:19:53;0.40;;;0.40;;
15848;SDS011;8024;48.708;9.394;2023-05-10T04:22:20;0.70;;;0.30;;
15848;SDS011;8024;48.708;9.394;2023-05-10T04:24:47;2.13;;;0.53;;
15848;SDS011;8024;48.708;9.394;2023-05-10T04:27:14;0.30;;;0.30;;
15848;SDS011;8024;48.708;9.394;2023-05-10T04:29:41;0.30;;;0.30;;
15848;SDS011;8024;48.708;9.394;2023-05-10T04:32:09;3.20;;;0.60;;
15848;SDS011;8024;48.708;9.394;2023-05-10T04:34:36;1.53;;;0.47;;
15848;SDS011;8024;48.708;9.394;2023-05-10T04:37:04;0.50;;;0.47;;
15848;SDS011;8024;48.708;9.394;2023-05-10T04:39:32;1.40;;;0.30;;
15848;SDS011;8024;48.708;9.394;2023-05-10T04:42:00;0.87;;;0.60;;
15848;SDS011;8024;48.708;9.394;2023-05-10T04:44:28;0.60;;;0.50;;
15848;SDS011;8024;48.708;9.394;2023-05-10T04:46:55;0.50;;;0.50;;
15848;SDS011;8024;48.708;9.394;2023-05-10T04:49:22;0.40;;;0.40;;
15848;SDS011;8024;48.708;9.394;2023-05-10T04:51:50;1.17;;;0.67;;
15848;SDS011;8024;48.708;9.394;2023-05-10T04:54:18;0.97;;;0.60;;
15848;SDS011;8024;48.708;9.394;2023-05-10T04:56:45;0.80;;;0.40;;
15848;SDS011;8024;48.708;9.394;2023-05-10T04:59:12;0.50;;;0.50;;
15848;SDS011;8024;48.708;9.394;2023-05-10T05:01:40;0.77;;;0.77;;
15848;SDS011;8024;48.708;9.394;2023-05-10T05:04:07;0.90;;;0.60;;
15848;SDS011;8024;48.708;9.394;2023-05-10T05:06:34;0.50;;;0.50;;
15848;SDS011;8024;48.708;9.394;2023-05-10T05:09:01;0.40;;;0.40;;
15848;SDS011;8024;48.708;9.394;2023-05-10T05:11:29;1.07;;;0.80;;
15848;SDS011;8024;48.708;9.394;2023-05-10T05:13:57;0.77;;;0.70;;
15848;SDS011;8024;48.708;9.394;2023-05-10T05:16:24;1.20;;;0.80;;
15848;SDS011;8024;48.708;9.394;2023-05-10T05:18:52;3.30;;;0.60;;
15848;SDS011;8024;48.708;9.394;2023-05-10T05:21:19;1.30;;;0.67;;
15848;SDS011;8024;48.708;9.394;2023-05-10T05:23:47;0.40;;;0.40;;
15848;SDS011;8024;48.708;9.394;2023-05-10T05:26:14;0.40;;;0.40;;
15848;SDS011;8024;48.708;9.394;2023-05-10T05:28:43;0.53;;;0.53;;
15848;SDS011;8024;48.708;9.394;2023-05-10T05:31:10;0.60;;;0.60;;
15848;SDS011;8024;48.708;9.394;2023-05-10T05:33:37;0.60;;;0.60;;
15848;SDS011;8024;48.708;9.394;2023-05-10T05:36:05;0.60;;;0.57;;
15848;SDS011;8024;48.708;9.394;2023-05-10T05:38:32;0.50;;;0.50;;
15848;SDS011;8024;48.708;9.394;2023-05-10T05:41:00;0.50;;;0.50;;
15848;SDS011;8024;48.708;9.394;2023-05-10T05:43:28;1.13;;;0.40;;
15848;SDS011;8024;48.708;9.394;2023-05-10T05:45:56;0.50;;;0.50;;
15848;SDS011;8024;48.708;9.394;2023-05-10T05:48:23;0.57;;;0.57;;
15848;SDS011;8024;48.708;9.394;2023-05-10T05:50:53;0.50;;;0.47;;
15848;SDS011;8024;48.708;9.394;2023-05-10T05:53:21;0.63;;;0.63;;
15848;SDS011;8024;48.708;9.394;2023-05-10T05:55:52;0.97;;;0.50;;
15848;SDS011;8024;48.708;9.394;2023-05-10T05:58:20;1.03;;;0.60;;
15848;SDS011;8024;48.708;9.394;2023-05-10T06:00:47;1.17;;;0.73;;
15848;SDS011;8024;48.708;9.394;2023-05-10T06:03:16;0.60;;;0.60;;
15848;SDS011;8024;48.708;9.394;2023-05-10T06:05:43;1.40;;;0.60;;
15848;SDS011;8024;48.708;9.394;2023-05-10T06:08:10;0.50;;;0.50;;
15848;SDS011;8024;48.708;9.394;2023-05-10T06:10:37;1.20;;;0.77;;
15848;SDS011;8024;48.708;9.394;2023-05-10T06:13:05;0.77;;;0.77;;
15848;SDS011;8024;48.708;9.394;2023-05-10T06:15:32;0.80;;;0.80;;
15848;SDS011;8024;48.708;9.394;2023-05-10T06:17:59;1.40;;;0.97;;
15848;SDS011;8024;48.708;9.394;2023-05-10T06:20:28;0.90;;;0.90;;
15848;SDS011;8024;48.708;9.394;2023-05-10T06:22:56;4.10;;;0.93;;
15848;SDS011;8024;48.708;9.394;2023-05-10T06:25:23;3.60;;;0.90;;
15848;SDS011;8024;48.708;9.394;2023-05-10T06:27:50;1.10;;;1.00;;
15848;SDS011;8024;48.708;9.394;2023-05-10T06:30:22;1.20;;;1.10;;
15848;SDS011;8024;48.708;9.394;2023-05-10T06:32:52;2.00;;;1.03;;
15848;SDS011;8024;48.708;9.394;2023-05-10T06:35:20;0.90;;;0.90;;
15848;SDS011;8024;48.708;9.394;2023-05-10T06:37:48;1.70;;;0.93;;
15848;SDS011;8024;48.708;9.394;2023-05-10T06:40:16;1.30;;;0.90;;
15848;SDS011;8024;48.708;9.394;2023-05-10T06:42:43;0.90;;;0.90;;
15848;SDS011;8024;48.708;9.394;2023-05-10T06:45:11;1.80;;;0.60;;
15848;SDS011;8024;48.708;9.394;2023-05-10T06:47:39;0.77;;;0.77;;
15848;SDS011;8024;48.708;9.394;2023-05-10T06:50:06;1.67;;;0.87;;
15848;SDS011;8024;48.708;9.394;2023-05-10T06:52:34;1.00;;;0.97;;
15848;SDS011;8024;48.708;9.394;2023-05-10T06:55:03;0.60;;;0.60;;
15848;SDS011;8024;48.708;9.394;2023-05-10T06:57:31;2.40;;;0.87;;
15848;SDS011;8024;48.708;9.394;2023-05-10T06:59:58;0.93;;;0.90;;
15848;SDS011;8024;48.708;9.394;2023-05-10T07:02:26;1.73;;;0.70;;
15848;SDS011;8024;48.708;9.394;2023-05-10T07:04:53;1.40;;;0.80;;
15848;SDS011;8024;48.708;9.394;2023-05-10T07:07:20;1.00;;;1.00;;
15848;SDS011;8024;48.708;9.394;2023-05-10T07:09:47;1.47;;;0.97;;
15848;SDS011;8024;48.708;9.394;2023-05-10T07:12:16;0.73;;;0.73;;
15848;SDS011;8024;48.708;9.394;2023-05-10T07:14:43;1.17;;;0.80;;
15848;SDS011;8024;48.708;9.394;2023-05-10T07:17:10;2.30;;;1.23;;
15848;SDS011;8024;48.708;9.394;2023-05-10T07:19:38;1.20;;;0.90;;
15848;SDS011;8024;48.708;9.394;2023-05-10T07:22:05;0.93;;;0.70;;
15848;SDS011;8024;48.708;9.394;2023-05-10T07:24:32;0.80;;;0.80;;
15848;SDS011;8024;48.708;9.394;2023-05-10T07:27:00;2.00;;;0.83;;
15848;SDS011;8024;48.708;9.394;2023-05-10T07:29:28;0.83;;;0.83;;
15848;SDS011;8024;48.708;9.394;2023-05-10T07:31:55;2.53;;;0.87;;
15848;SDS011;8024;48.708;9.394;2023-05-10T07:34:23;0.97;;;0.80;;
15848;SDS011;8024;48.708;9.394;2023-05-10T07:36:50;3.80;;;0.80;;
15848;SDS011;8024;48.708;9.394;2023-05-10T07:39:17;1.23;;;0.93;;
15848;SDS011;8024;48.708;9.394;2023-05-10T07:41:45;1.70;;;0.70;;
15848;SDS011;8024;48.708;9.394;2023-05-10T07:44:12;0.53;;;0.50;;
15848;SDS011;8024;48.708;9.394;2023-05-10T07:46:41;1.07;;;0.80;;
15848;SDS011;8024;48.708;9.394;2023-05-10T07:49:08;2.40;;;0.70;;
15848;SDS011;8024;48.708;9.394;2023-05-10T07:51:35;0.70;;;0.70;;
15848;SDS011;8024;48.708;9.394;2023-05-10T07:54:02;1.07;;;1.07;;
15848;SDS011;8024;48.708;9.394;2023-05-10T07:56:30;2.43;;;1.10;;
15848;SDS011;8024;48.708;9.394;2023-05-10T07:58:58;0.70;;;0.70;;
15848;SDS011;8024;48.708;9.394;2023-05-10T08:01:25;0.67;;;0.67;;
15848;SDS011;8024;48.708;9.394;2023-05-10T08:03:57;1.27;;;0.67;;
15848;SDS011;8024;48.708;9.394;2023-05-10T08:06:24;0.70;;;0.60;;
15848;SDS011;8024;48.708;9.394;2023-05-10T08:08:52;0.70;;;0.70;;
15848;SDS011;8024;48.708;9.394;2023-05-10T08:11:19;1.07;;;1.07;;
15848;SDS011;8024;48.708;9.394;2023-05-10T08:13:47;0.83;;;0.70;;
15848;SDS011;8024;48.708;9.394;2023-05-10T08:16:15;1.03;;;0.70;;
15848;SDS011;8024;48.708;9.394;2023-05-10T08:18:43;0.90;;;0.70;;
15848;SDS011;8024;48.708;9.394;2023-05-10T08:21:13;0.80;;;0.80;;
15848;SDS011;8024;48.708;9.394;2023-05-10T08:23:40;1.07;;;0.70;;
15848;SDS011;8024;48.708;9.394;2023-05-10T08:26:08;0.57;;;0.37;;
15848;SDS011;8024;48.708;9.394;2023-05-10T08:28:35;0.67;;;0.67;;
15848;SDS011;8024;48.708;9.394;2023-05-10T08:31:03;0.90;;;0.37;;
15848;SDS011;8024;48.708;9.394;2023-05-10T08:33:31;0.57;;;0.40;;
15848;SDS011;8024;48.708;9.394;2023-05-10T08:35:58;1.10;;;0.43;;
15848;SDS011;8024;48.708;9.394;2023-05-10T08:38:27;0.30;;;0.30;;
15848;SDS011;8024;48.708;9.394;2023-05-10T08:40:54;0.57;;;0.30;;
15848;SDS011;8024;48.708;9.394;2023-05-10T08:43:23;0.30;;;0.23;;
15848;SDS011;8024;48.708;9.394;2023-05-10T08:45:53;0.30;;;0.30;;
15848;SDS011;8024;48.708;9.394;2023-05-10T08:48:22;0.40;;;0.40;;
15848;SDS011;8024;48.708;9.394;2023-05-10T08:50:52;1.50;;;0.30;;
15848;SDS011;8024;48.708;9.394;2023-05-10T08:53:20;0.80;;;0.40;;
15848;SDS011;8024;48.708;9.394;2023-05-10T08:55:51;0.40;;;0.40;;
15848;SDS011;8024;48.708;9.394;2023-05-10T08:58:19;0.30;;;0.30;;
15848;SDS011;8024;48.708;9.394;2023-05-10T09:00:48;0.40;;;0.40;;
15848;SDS011;8024;48.708;9.394;2023-05-10T09:03:17;0.30;;;0.30;;
15848;SDS011;8024;48.708;9.394;2023-05-10T09:05:44;0.40;;;0.30;;
15848;SDS011;8024;48.708;9.394;2023-05-10T09:08:12;0.87;;;0.50;;
15848;SDS011;8024;48.708;9.394;2023-05-10T09:10:41;2.83;;;0.40;;
15848;SDS011;8024;48.708;9.394;2023-05-10T09:13:11;0.57;;;0.30;;
15848;SDS011;8024;48.708;9.394;2023-05-10T09:15:40;0.30;;;0.30;;
15848;SDS011;8024;48.708;9.394;2023-05-10T09:18:07;0.93;;;0.40;;
15848;SDS011;8024;48.708;9.394;2023-05-10T09:20:34;0.30;;;0.30;;
15848;SDS011;8024;48.708;9.394;2023-05-10T09:23:01;0.30;;;0.30;;
15848;SDS011;8024;48.708;9.394;2023-05-10T09:25:28;1.20;;;0.30;;
15848;SDS011;8024;48.708;9.394;2023-05-10T09:27:58;0.20;;;0.20;;
15848;SDS011;8024;48.708;9.394;2023-05-10T09:30:27;1.40;;;0.40;;
15848;SDS011;8024;48.708;9.394;2023-05-10T09:32:55;0.60;;;0.30;;
15848;SDS011;8024;48.708;9.394;2023-05-10T09:35:24;0.53;;;0.30;;
15848;SDS011;8024;48.708;9.394;2023-05-10T09:37:53;3.53;;;1.10;;
15848;SDS011;8024;48.708;9.394;2023-05-10T09:40:22;1.10;;;0.30;;
15848;SDS011;8024;48.708;9.394;2023-05-10T09:42:51;0.53;;;0.30;;
15848;SDS011;8024;48.708;9.394;2023-05-10T09:45:19;0.50;;;0.50;;
15848;SDS011;8024;48.708;9.394;2023-05-10T09:47:48;0.30;;;0.30;;
15848;SDS011;8024;48.708;9.394;2023-05-10T09:50:15;0.50;;;0.50;;
15848;SDS011;8024;48.708;9.394;2023-05-10T09:52:46;1.50;;;0.50;;
15848;SDS011;8024;48.708;9.394;2023-05-10T09:55:15;0.33;;;0.33;;
15848;SDS011;8024;48.708;9.394;2023-05-10T09:57:43;1.80;;;0.30;;
15848;SDS011;8024;48.708;9.394;2023-05-10T10:00:12;0.30;;;0.30;;
15848;SDS011;8024;48.708;9.394;2023-05-10T10:02:44;0.87;;;0.53;;
15848;SDS011;8024;48.708;9.394;2023-05-10T10:05:14;1.00;;;0.50;;
15848;SDS011;8024;48.708;9.394;2023-05-10T10:07:42;0.57;;;0.50;;
15848;SDS011;8024;48.708;9.394;2023-05-10T10:10:09;1.23;;;0.30;;
15848;SDS011;8024;48.708;9.394;2023-05-10T10:12:41;1.43;;;0.50;;
15848;SDS011;8024;48.708;9.394;2023-05-10T10:15:09;2.10;;;0.30;;
15848;SDS011;8024;48.708;9.394;2023-05-10T10:17:37;1.23;;;0.50;;
15848;SDS011;8024;48.708;9.394;2023-05-10T10:20:05;0.40;;;0.40;;
15848;SDS011;8024;48.708;9.394;2023-05-10T10:22:35;2.23;;;0.40;;
15848;SDS011;8024;48.708;9.394;2023-05-10T10:25:04;4.40;;;0.30;;
15848;SDS011;8024;48.708;9.394;2023-05-10T10:27:34;0.70;;;0.30;;
15848;SDS011;8024;48.708;9.394;2023-05-10T10:30:18;0.30;;;0.30;;
15848;SDS011;8024;48.708;9.394;2023-05-10T10:32:55;0.60;;;0.40;;
15848;SDS011;8024;48.708;9.394;2023-05-10T10:35:33;0.90;;;0.37;;
15848;SDS011;8024;48.708;9.394;2023-05-10T10:38:02;1.50;;;0.60;;
15848;SDS011;8024;48.708;9.394;2023-05-10T10:40:30;0.33;;;0.27;;
15848;SDS011;8024;48.708;9.394;2023-05-10T10:43:20;0.50;;;0.40;;
15848;SDS011;8024;48.708;9.394;2023-05-10T10:48:39;0.87;;;0.30;;
15848;SDS011;8024;48.708;9.394;2023-05-10T10:51:07;0.33;;;0.23;;
15848;SDS011;8024;48.708;9.394;2023-05-10T10:53:35;1.23;;;0.20;;
15848;SDS011;8024;48.708;9.394;2023-05-10T10:56:07;0.30;;;0.30;;
15848;SDS011;8024;48.708;9.394;2023-05-10T10:58:36;0.70;;;0.30;;
15848;SDS011;8024;48.708;9.394;2023-05-10T11:01:13;1.70;;;0.53;;
15848;SDS011;8024;48.708;9.394;2023-05-10T11:03:54;0.77;;;0.20;;
15848;SDS011;8024;48.708;9.394;2023-05-10T11:06:43;0.87;;;0.30;;
15848;SDS011;8024;48.708;9.394;2023-05-10T11:09:12;0.90;;;0.20;;
15848;SDS011;8024;48.708;9.394;2023-05-10T11:11:48;0.80;;;0.50;;
15848;SDS011;8024;48.708;9.394;2023-05-10T11:14:20;0.77;;;0.20;;
15848;SDS011;8024;48.708;9.394;2023-05-10T11:16:48;1.83;;;0.60;;
15848;SDS011;8024;48.708;9.394;2023-05-10T11:19:16;1.30;;;0.50;;
15848;SDS011;8024;48.708;9.394;2023-05-10T11:21:44;0.80;;;0.60;;
15848;SDS011;8024;48.708;9.394;2023-05-10T11:24:14;2.63;;;0.73;;
15848;SDS011;8024;48.708;9.394;2023-05-10T11:26:43;1.67;;;0.53;;
15848;SDS011;8024;48.708;9.394;2023-05-10T11:29:12;1.10;;;0.37;;
15848;SDS011;8024;48.708;9.394;2023-05-10T11:31:43;1.03;;;0.40;;
15848;SDS011;8024;48.708;9.394;2023-05-10T11:34:11;1.30;;;0.47;;
15848;SDS011;8024;48.708;9.394;2023-05-10T11:36:50;1.07;;;0.30;;
15848;SDS011;8024;48.708;9.394;2023-05-10T11:39:20;0.40;;;0.30;;
15848;SDS011;8024;48.708;9.394;2023-05-10T11:41:48;0.73;;;0.30;;
15848;SDS011;8024;48.708;9.394;2023-05-10T11:44:15;0.30;;;0.30;;
15848;SDS011;8024;48.708;9.394;2023-05-10T11:46:43;0.70;;;0.50;;
15848;SDS011;8024;48.708;9.394;2023-05-10T11:49:10;2.03;;;0.40;;
15848;SDS011;8024;48.708;9.394;2023-05-10T11:51:38;2.37;;;0.50;;
15848;SDS011;8024;48.708;9.394;2023-05-10T11:54:07;2.00;;;0.33;;
15848;SDS011;8024;48.708;9.394;2023-05-10T11:56:37;0.63;;;0.40;;
15848;SDS011;8024;48.708;9.394;2023-05-10T11:59:05;0.97;;;0.40;;
15848;SDS011;8024;48.708;9.394;2023-05-10T12:01:33;1.67;;;0.37;;
15848;SDS011;8024;48.708;9.394;2023-05-10T12:04:00;0.73;;;0.27;;
15848;SDS011;8024;48.708;9.394;2023-05-10T12:06:28;1.17;;;0.50;;
15848;SDS011;8024;48.708;9.394;2023-05-10T12:08:57;1.30;;;0.30;;
15848;SDS011;8024;48.708;9.394;2023-05-10T12:11:25;1.33;;;0.40;;
15848;SDS011;8024;48.708;9.394;2023-05-10T12:13:54;0.77;;;0.40;;
15848;SDS011;8024;48.708;9.394;2023-05-10T12:16:22;3.33;;;0.80;;
15848;SDS011;8024;48.708;9.394;2023-05-10T12:18:51;1.67;;;0.50;;
15848;SDS011;8024;48.708;9.394;2023-05-10T12:21:22;3.30;;;0.60;;
15848;SDS011;8024;48.708;9.394;2023-05-10T12:23:51;0.90;;;0.87;;
15848;SDS011;8024;48.708;9.394;2023-05-10T12:26:20;2.27;;;0.90;;
15848;SDS011;8024;48.708;9.394;2023-05-10T12:28:49;1.07;;;0.70;;
15848;SDS011;8024;48.708;9.394;2023-05-10T12:31:18;4.80;;;1.23;;
15848;SDS011;8024;48.708;9.394;2023-05-10T12:33:45;1.70;;;0.70;;
15848;SDS011;8024;48.708;9.394;2023-05-10T12:36:14;1.77;;;0.63;;
15848;SDS011;8024;48.708;9.394;2023-05-10T12:38:43;1.00;;;0.90;;
15848;SDS011;8024;48.708;9.394;2023-05-10T12:41:13;1.73;;;1.10;;
15848;SDS011;8024;48.708;9.394;2023-05-10T12:43:42;2.50;;;1.60;;
15848;SDS011;8024;48.708;9.394;2023-05-10T12:46:11;1.87;;;1.53;;
15848;SDS011;8024;48.708;9.394;2023-05-10T12:48:40;2.60;;;1.00;;
15848;SDS011;8024;48.708;9.394;2023-05-10T12:51:09;2.83;;;1.57;;
15848;SDS011;8024;48.708;9.394;2023-05-10T12:53:38;2.40;;;1.30;;
15848;SDS011;8024;48.708;9.394;2023-05-10T12:56:05;2.20;;;1.23;;
15848;SDS011;8024;48.708;9.394;2023-05-10T12:58:33;1.17;;;1.07;;
15848;SDS011;8024;48.708;9.394;2023-05-10T13:01:01;2.30;;;0.90;;
15848;SDS011;8024;48.708;9.394;2023-05-10T13:03:29;2.27;;;0.80;;
15848;SDS011;8024;48.708;9.394;2023-05-10T13:05:58;1.97;;;1.50;;
15848;SDS011;8024;48.708;9.394;2023-05-10T13:08:25;2.40;;;1.03;;
15848;SDS011;8024;48.708;9.394;2023-05-10T13:10:54;1.47;;;0.70;;
15848;SDS011;8024;48.708;9.394;2023-05-10T13:13:21;1.50;;;0.77;;
15848;SDS011;8024;48.708;9.394;2023-05-10T13:15:48;1.60;;;0.87;;
15848;SDS011;8024;48.708;9.394;2023-05-10T13:18:16;0.87;;;0.87;;
15848;SDS011;8024;48.708;9.394;2023-05-10T13:20:43;1.40;;;0.70;;
15848;SDS011;8024;48.708;9.394;2023-05-10T13:23:11;1.70;;;1.00;;
15848;SDS011;8024;48.708;9.394;2023-05-10T13:25:38;2.10;;;0.87;;
15848;SDS011;8024;48.708;9.394;2023-05-10T13:28:05;1.70;;;0.70;;
15848;SDS011;8024;48.708;9.394;2023-05-10T13:30:32;1.67;;;0.70;;
15848;SDS011;8024;48.708;9.394;2023-05-10T13:33:00;1.37;;;0.73;;
15848;SDS011;8024;48.708;9.394;2023-05-10T13:35:27;2.50;;;1.40;;
15848;SDS011;8024;48.708;9.394;2023-05-10T13:37:54;3.70;;;1.43;;
15848;SDS011;8024;48.708;9.394;2023-05-10T13:40:23;1.53;;;1.43;;
15848;SDS011;8024;48.708;9.394;2023-05-10T13:42:51;2.87;;;1.50;;
15848;SDS011;8024;48.708;9.394;2023-05-10T13:45:18;2.03;;;1.10;;
15848;SDS011;8024;48.708;9.394;2023-05-10T13:47:45;2.23;;;0.80;;
15848;SDS011;8024;48.708;9.394;2023-05-10T13:50:13;1.77;;;1.00;;
15848;SDS011;8024;48.708;9.394;2023-05-10T13:52:40;3.37;;;1.07;;
15848;SDS011;8024;48.708;9.394;2023-05-10T13:55:07;1.40;;;0.80;;
15848;SDS011;8024;48.708;9.394;2023-05-10T13:57:38;1.23;;;1.07;;
15848;SDS011;8024;48.708;9.394;2023-05-10T14:00:06;0.97;;;0.77;;
15848;SDS011;8024;48.708;9.394;2023-05-10T14:02:34;1.47;;;0.77;;
15848;SDS011;8024;48.708;9.394;2023-05-10T14:05:01;1.70;;;0.77;;
15848;SDS011;8024;48.708;9.394;2023-05-10T14:07:29;3.03;;;0.80;;
15848;SDS011;8024;48.708;9.394;2023-05-10T14:09:56;1.30;;;1.10;;
15848;SDS011;8024;48.708;9.394;2023-05-10T14:12:23;1.70;;;1.27;;
15848;SDS011;8024;48.708;9.394;2023-05-10T14:14:52;3.30;;;0.70;;
15848;SDS011;8024;48.708;9.394;2023-05-10T14:17:19;3.67;;;0.93;;
15848;SDS011;8024;48.708;9.394;2023-05-10T14:19:47;2.50;;;0.87;;
15848;SDS011;8024;48.708;9.394;2023-05-10T14:22:14;5.23;;;1.10;;
15848;SDS011;8024;48.708;9.394;2023-05-10T14:24:41;3.83;;;1.20;;
15848;SDS011;8024;48.708;9.394;2023-05-10T14:27:11;1.27;;;1.17;;
15848;SDS011;8024;48.708;9.394;2023-05-10T14:29:39;3.83;;;0.60;;
15848;SDS011;8024;48.708;9.394;2023-05-10T14:32:07;2.60;;;0.90;;
15848;SDS011;8024;48.708;9.394;2023-05-10T14:34:34;1.90;;;1.10;;
15848;SDS011;8024;48.708;9.394;2023-05-10T14:37:01;1.13;;;1.00;;
15848;SDS011;8024;48.708;9.394;2023-05-10T14:39:29;2.33;;;0.70;;
15848;SDS011;8024;48.708;9.394;2023-05-10T14:41:56;0.80;;;0.70;;
15848;SDS011;8024;48.708;9.394;2023-05-10T14:44:23;2.90;;;0.93;;
15848;SDS011;8024;48.708;9.394;2023-05-10T14:46:51;0.73;;;0.70;;
15848;SDS011;8024;48.708;9.394;2023-05-10T14:49:19;1.83;;;1.03;;
15848;SDS011;8024;48.708;9.394;2023-05-10T14:51:47;1.27;;;0.63;;
15848;SDS011;8024;48.708;9.394;2023-05-10T14:54:15;0.97;;;0.47;;
15848;SDS011;8024;48.708;9.394;2023-05-10T14:56:42;1.70;;;0.67;;
15848;SDS011;8024;48.708;9.394;2023-05-10T14:59:10;3.37;;;0.67;;
15848;SDS011;8024;48.708;9.394;2023-05-10T15:01:37;2.57;;;0.90;;
15848;SDS011;8024;48.708;9.394;2023-05-10T15:04:06;1.47;;;0.50;;
15848;SDS011;8024;48.708;9.394;2023-05-10T15:06:35;1.63;;;0.60;;
15848;SDS011;8024;48.708;9.394;2023-05-10T15:09:03;0.57;;;0.50;;
15848;SDS011;8024;48.708;9.394;2023-05-10T15:11:30;1.50;;;0.80;;
15848;SDS011;8024;48.708;9.394;2023-05-10T15:13:57;1.27;;;0.70;;
15848;SDS011;8024;48.708;9.394;2023-05-10T15:16:25;1.97;;;0.63;;